createdAt,value
2019-06-01T00:01:16.871Z,13.80
2019-06-01T00:03:46.364Z,13.80
2019-06-01T00:06:14.953Z,13.80
2019-06-01T00:08:43.453Z,13.80
2019-06-01T00:11:11.897Z,13.80
2019-06-01T00:13:41.460Z,13.80
2019-06-01T00:16:10.137Z,13.80
2019-06-01T00:18:39.760Z,13.90
2019-06-01T00:21:08.332Z,13.90
2019-06-01T00:23:36.823Z,13.80
2019-06-01T00:26:05.263Z,13.80
2019-06-01T00:28:33.720Z,13.90
2019-06-01T00:31:02.197Z,13.80
2019-06-01T00:33:30.637Z,13.80
2019-06-01T00:35:59.080Z,13.80
2019-06-01T00:38:27.565Z,13.80
2019-06-01T00:40:56.123Z,13.70
2019-06-01T00:43:24.614Z,13.80
2019-06-01T00:45:53.222Z,13.80
2019-06-01T00:48:21.692Z,13.80
2019-06-01T00:50:50.991Z,13.80
2019-06-01T00:53:19.573Z,13.80
2019-06-01T00:55:48.013Z,13.80
2019-06-01T00:58:16.447Z,13.90
2019-06-01T01:00:46.015Z,13.90
2019-06-01T01:03:15.033Z,13.90
2019-06-01T01:05:44.614Z,13.90
2019-06-01T01:08:13.257Z,13.90
2019-06-01T01:10:41.704Z,13.90
2019-06-01T01:13:11.784Z,13.90
2019-06-01T01:15:40.272Z,13.90
2019-06-01T01:18:08.766Z,13.80
2019-06-01T01:20:37.949Z,13.80
2019-06-01T01:23:07.632Z,13.80
2019-06-01T01:25:36.453Z,13.70
2019-06-01T01:28:05.361Z,13.70
2019-06-01T01:30:33.866Z,13.70
2019-06-01T01:33:02.305Z,13.60
2019-06-01T01:35:30.851Z,13.60
2019-06-01T01:37:59.678Z,13.60
2019-06-01T01:40:28.695Z,13.60
2019-06-01T01:42:58.762Z,13.70
2019-06-01T01:45:27.421Z,13.70
2019-06-01T01:47:57.038Z,13.70
2019-06-01T01:50:26.073Z,13.80
2019-06-01T01:52:54.807Z,13.80
2019-06-01T01:55:23.417Z,13.80
2019-06-01T01:57:53.216Z,13.80
2019-06-01T02:00:46.977Z,13.80
2019-06-01T02:03:15.537Z,13.80
2019-06-01T02:05:44.111Z,13.70
2019-06-01T02:08:12.790Z,13.70
2019-06-01T02:10:41.238Z,13.70
2019-06-01T02:13:09.725Z,13.70
2019-06-01T02:15:39.215Z,13.70
2019-06-01T02:18:07.689Z,13.80
2019-06-01T02:20:36.141Z,13.90
2019-06-01T02:23:05.165Z,13.90
2019-06-01T02:25:33.608Z,13.90
2019-06-01T02:28:03.289Z,13.80
2019-06-01T02:30:31.950Z,13.80
2019-06-01T02:33:01.843Z,13.70
2019-06-01T02:35:30.556Z,13.60
2019-06-01T02:38:00.298Z,13.60
2019-06-01T02:40:28.965Z,13.50
2019-06-01T02:42:59.190Z,13.50
2019-06-01T02:45:27.558Z,13.40
2019-06-01T02:47:57.466Z,13.40
2019-06-01T02:50:26.157Z,13.40
2019-06-01T02:52:55.541Z,13.30
2019-06-01T02:55:24.122Z,13.30
2019-06-01T02:57:52.579Z,13.30
2019-06-01T03:00:42.671Z,13.30
2019-06-01T03:03:11.108Z,13.30
2019-06-01T03:05:39.557Z,13.30
2019-06-01T03:08:08.050Z,13.30
2019-06-01T03:10:36.535Z,13.40
2019-06-01T03:13:06.153Z,13.40
2019-06-01T03:15:34.830Z,13.40
2019-06-01T03:18:03.515Z,13.40
2019-06-01T03:20:32.093Z,13.50
2019-06-01T03:23:01.683Z,13.50
2019-06-01T03:25:30.241Z,13.60
2019-06-01T03:27:59.951Z,13.70
2019-06-01T03:30:37.570Z,13.70
2019-06-01T03:33:07.999Z,13.70
2019-06-01T03:35:36.233Z,13.60
2019-06-01T03:38:05.008Z,13.60
2019-06-01T03:40:33.612Z,13.60
2019-06-01T03:43:02.344Z,13.60
2019-06-01T03:45:31.024Z,13.60
2019-06-01T03:48:00.414Z,13.60
2019-06-01T03:50:29.025Z,13.60
2019-06-01T03:52:57.588Z,13.60
2019-06-01T03:55:26.040Z,13.60
2019-06-01T03:57:54.487Z,13.60
2019-06-01T04:00:22.993Z,13.70
2019-06-01T04:02:51.446Z,13.70
2019-06-01T04:05:19.906Z,13.70
2019-06-01T04:07:48.384Z,13.80
2019-06-01T04:10:16.908Z,14.00
2019-06-01T04:12:45.424Z,14.30
2019-06-01T04:15:16.717Z,14.60
2019-06-01T04:17:44.077Z,14.80
2019-06-01T04:20:12.657Z,15.10
2019-06-01T04:22:41.101Z,15.30
2019-06-01T04:25:10.313Z,15.50
2019-06-01T04:27:38.905Z,15.60
2019-06-01T04:30:09.288Z,15.70
2019-06-01T04:32:49.420Z,15.80
2019-06-01T04:35:09.032Z,15.80
2019-06-01T04:37:37.722Z,15.80
2019-06-01T04:40:07.442Z,15.70
2019-06-01T04:42:36.113Z,15.50
2019-06-01T04:45:09.013Z,15.30
2019-06-01T04:47:37.565Z,15.20
2019-06-01T04:50:09.034Z,15.10
2019-06-01T04:52:37.497Z,15.00
2019-06-01T04:55:08.937Z,15.00
2019-06-01T04:57:37.662Z,14.90
2019-06-01T05:00:15.388Z,14.90
2019-06-01T05:02:38.040Z,14.80
2019-06-01T05:05:07.235Z,14.80
2019-06-01T05:07:35.929Z,14.90
2019-06-01T05:10:07.300Z,14.90
2019-06-01T05:12:36.052Z,14.90
2019-06-01T05:15:07.388Z,15.00
2019-06-01T05:17:36.057Z,15.00
2019-06-01T05:20:06.277Z,15.10
2019-06-01T05:22:34.809Z,15.10
2019-06-01T05:25:04.210Z,15.10
2019-06-01T05:27:32.701Z,15.20
2019-06-01T05:30:01.165Z,15.30
2019-06-01T05:32:29.604Z,15.40
2019-06-01T05:34:58.109Z,15.40
2019-06-01T05:37:26.563Z,15.50
2019-06-01T05:39:55.018Z,15.60
2019-06-01T05:42:23.510Z,15.60
2019-06-01T05:44:51.992Z,15.70
2019-06-01T05:47:20.480Z,15.80
2019-06-01T05:49:48.928Z,15.80
2019-06-01T05:52:18.697Z,15.80
2019-06-01T05:54:47.349Z,15.90
2019-06-01T05:57:16.818Z,15.90
2019-06-01T05:59:45.405Z,16.00
2019-06-01T06:02:13.849Z,16.10
2019-06-01T06:04:42.305Z,16.10
2019-06-01T06:07:10.817Z,16.10
2019-06-01T06:09:39.325Z,16.20
2019-06-01T06:12:07.833Z,16.20
2019-06-01T06:14:36.316Z,16.20
2019-06-01T06:17:04.764Z,16.30
2019-06-01T06:19:33.259Z,16.40
2019-06-01T06:22:01.704Z,16.40
2019-06-01T06:24:30.152Z,16.50
2019-06-01T06:26:58.662Z,16.50
2019-06-01T06:29:27.171Z,16.50
2019-06-01T06:31:55.612Z,16.60
2019-06-01T06:34:24.158Z,16.60
2019-06-01T06:36:52.596Z,16.70
2019-06-01T06:39:22.000Z,16.80
2019-06-01T06:41:50.633Z,16.90
2019-06-01T06:44:19.079Z,16.80
2019-06-01T06:46:47.619Z,16.80
2019-06-01T06:49:17.070Z,16.90
2019-06-01T06:51:45.607Z,17.00
2019-06-01T06:54:14.939Z,17.00
2019-06-01T06:56:44.224Z,17.00
2019-06-01T06:59:12.674Z,17.00
2019-06-01T07:01:41.241Z,17.00
2019-06-01T07:04:12.903Z,17.10
2019-06-01T07:06:40.194Z,17.10
2019-06-01T07:09:08.625Z,17.10
2019-06-01T07:11:37.143Z,17.10
2019-06-01T07:14:05.789Z,17.10
2019-06-01T07:16:34.311Z,17.10
2019-06-01T07:19:02.749Z,17.00
2019-06-01T07:21:31.997Z,16.80
2019-06-01T07:24:00.593Z,16.80
2019-06-01T07:26:29.081Z,17.00
2019-06-01T07:28:57.869Z,17.10
2019-06-01T07:31:28.296Z,17.10
2019-06-01T07:33:57.874Z,17.20
2019-06-01T07:36:26.691Z,17.40
2019-06-01T07:38:55.396Z,17.60
2019-06-01T07:41:24.673Z,17.70
2019-06-01T07:43:53.236Z,17.90
2019-06-01T07:46:22.797Z,17.90
2019-06-01T07:48:51.298Z,17.80
2019-06-01T07:51:20.990Z,17.80
2019-06-01T07:53:49.625Z,17.90
2019-06-01T07:56:18.113Z,18.00
2019-06-01T07:58:46.565Z,18.10
2019-06-01T08:01:15.022Z,18.20
2019-06-01T08:03:43.720Z,18.30
2019-06-01T08:06:12.161Z,18.40
2019-06-01T08:08:40.615Z,18.30
2019-06-01T08:11:09.166Z,18.10
2019-06-01T08:13:37.613Z,18.20
2019-06-01T08:16:06.121Z,18.40
2019-06-01T08:18:34.613Z,18.40
2019-06-01T08:21:03.125Z,18.40
2019-06-01T08:23:32.490Z,18.40
2019-06-01T08:26:01.176Z,18.20
2019-06-01T08:28:30.870Z,18.00
2019-06-01T08:30:59.513Z,18.20
2019-06-01T08:33:29.979Z,18.40
2019-06-01T08:35:58.069Z,18.40
2019-06-01T08:38:27.484Z,18.40
2019-06-01T08:40:57.452Z,18.50
2019-06-01T08:43:25.898Z,18.60
2019-06-01T08:45:54.521Z,18.60
2019-06-01T08:48:23.650Z,18.40
2019-06-01T08:50:52.262Z,18.20
2019-06-01T08:53:20.877Z,18.30
2019-06-01T08:55:49.450Z,18.50
2019-06-01T08:58:17.963Z,18.80
2019-06-01T09:00:46.400Z,18.80
2019-06-01T09:03:14.976Z,18.80
2019-06-01T09:05:43.490Z,18.80
2019-06-01T09:08:12.002Z,18.90
2019-06-01T09:10:40.484Z,19.00
2019-06-01T09:13:08.943Z,19.10
2019-06-01T09:15:37.391Z,19.10
2019-06-01T09:18:05.890Z,18.90
2019-06-01T09:20:37.485Z,18.80
2019-06-01T09:23:04.484Z,18.70
2019-06-01T09:25:33.820Z,18.90
2019-06-01T09:28:02.421Z,19.00
2019-06-01T09:30:31.983Z,19.00
2019-06-01T09:33:00.603Z,19.00
2019-06-01T09:35:48.576Z,19.10
2019-06-01T09:37:59.209Z,19.10
2019-06-01T09:40:29.972Z,19.00
2019-06-01T09:42:57.850Z,19.10
2019-06-01T09:45:27.728Z,19.40
2019-06-01T09:47:56.489Z,19.60
2019-06-01T09:50:24.929Z,19.70
2019-06-01T09:52:53.413Z,19.90
2019-06-01T09:55:21.859Z,20.20
2019-06-01T09:57:50.357Z,20.00
2019-06-01T10:00:18.994Z,20.00
2019-06-01T10:02:47.498Z,20.10
2019-06-01T10:05:16.057Z,20.10
2019-06-01T10:07:44.587Z,20.40
2019-06-01T10:10:13.002Z,20.40
2019-06-01T10:12:42.289Z,20.20
2019-06-01T10:15:10.990Z,19.80
2019-06-01T10:17:39.497Z,19.70
2019-06-01T10:20:09.163Z,19.80
2019-06-01T10:22:37.633Z,19.90
2019-06-01T10:25:06.892Z,20.00
2019-06-01T10:27:36.747Z,20.10
2019-06-01T10:30:08.356Z,20.20
2019-06-01T10:32:38.031Z,20.40
2019-06-01T10:35:07.327Z,20.40
2019-06-01T10:37:35.775Z,20.10
2019-06-01T10:40:05.797Z,19.80
2019-06-01T10:42:35.756Z,19.80
2019-06-01T10:45:05.701Z,19.70
2019-06-01T10:47:34.723Z,19.50
2019-06-01T10:50:08.637Z,19.40
2019-06-01T10:52:38.371Z,19.20
2019-06-01T10:55:07.438Z,19.30
2019-06-01T10:57:36.575Z,19.40
2019-06-01T11:00:10.225Z,19.70
2019-06-01T11:02:38.963Z,19.90
2019-06-01T11:05:07.803Z,19.90
2019-06-01T11:07:36.741Z,20.20
2019-06-01T11:10:07.017Z,19.90
2019-06-01T11:12:36.814Z,19.90
2019-06-01T11:15:06.245Z,19.90
2019-06-01T11:17:34.913Z,20.00
2019-06-01T11:20:05.392Z,20.20
2019-06-01T11:22:33.835Z,20.10
2019-06-01T11:25:02.317Z,20.00
2019-06-01T11:27:30.877Z,20.40
2019-06-01T11:29:59.349Z,20.40
2019-06-01T11:32:27.803Z,20.80
2019-06-01T11:34:56.299Z,20.80
2019-06-01T11:37:24.778Z,20.90
2019-06-01T11:39:53.290Z,20.80
2019-06-01T11:42:21.839Z,20.90
2019-06-01T11:44:50.296Z,20.80
2019-06-01T11:47:18.815Z,20.80
2019-06-01T11:49:47.257Z,20.90
2019-06-01T11:52:15.705Z,21.40
2019-06-01T11:54:45.343Z,21.50
2019-06-01T11:57:13.969Z,21.00
2019-06-01T11:59:43.529Z,20.90
2019-06-01T12:02:12.108Z,20.70
2019-06-01T12:04:41.888Z,20.40
2019-06-01T12:07:17.553Z,20.20
2019-06-01T12:09:41.804Z,20.40
2019-06-01T12:12:10.325Z,20.40
2019-06-01T12:14:38.829Z,20.50
2019-06-01T12:17:07.265Z,20.60
2019-06-01T12:19:36.532Z,20.70
2019-06-01T12:22:05.042Z,20.70
2019-06-01T12:24:33.569Z,20.80
2019-06-01T12:27:02.118Z,21.00
2019-06-01T12:29:30.588Z,20.70
2019-06-01T12:32:17.266Z,20.60
2019-06-01T12:34:46.242Z,20.80
2019-06-01T12:37:14.795Z,20.70
2019-06-01T12:39:44.386Z,20.60
2019-06-01T12:42:12.899Z,20.80
2019-06-01T12:44:41.678Z,20.90
2019-06-01T12:47:10.238Z,20.60
2019-06-01T12:49:40.082Z,20.00
2019-06-01T12:52:08.658Z,19.90
2019-06-01T12:54:37.138Z,20.30
2019-06-01T12:57:05.696Z,20.90
2019-06-01T12:59:34.174Z,21.00
2019-06-01T13:02:02.614Z,21.20
2019-06-01T13:04:31.190Z,21.50
2019-06-01T13:06:59.636Z,21.60
2019-06-01T13:09:28.094Z,21.80
2019-06-01T13:11:56.583Z,22.20
2019-06-01T13:14:45.164Z,22.30
2019-06-01T13:17:13.733Z,22.50
2019-06-01T13:19:43.476Z,22.60
2019-06-01T13:22:11.897Z,22.60
2019-06-01T13:24:41.514Z,22.60
2019-06-01T13:27:10.211Z,22.30
2019-06-01T13:29:38.688Z,22.60
2019-06-01T13:32:07.141Z,22.80
2019-06-01T13:34:35.622Z,23.10
2019-06-01T13:37:04.336Z,23.20
2019-06-01T13:39:32.850Z,23.20
2019-06-01T13:42:01.315Z,23.00
2019-06-01T13:44:29.755Z,22.90
2019-06-01T13:46:58.253Z,22.50
2019-06-01T13:49:26.689Z,22.30
2019-06-01T13:51:55.186Z,22.40
2019-06-01T13:54:23.681Z,22.50
2019-06-01T13:56:53.056Z,22.60
2019-06-01T13:59:21.738Z,22.40
2019-06-01T14:01:51.365Z,22.10
2019-06-01T14:04:20.079Z,22.40
2019-06-01T14:06:49.051Z,22.30
2019-06-01T14:09:17.510Z,22.40
2019-06-01T14:11:47.257Z,22.50
2019-06-01T14:14:15.949Z,22.70
2019-06-01T14:16:45.449Z,22.90
2019-06-01T14:19:14.086Z,22.80
2019-06-01T14:21:42.561Z,22.80
2019-06-01T14:24:11.038Z,22.80
2019-06-01T14:26:39.543Z,22.90
2019-06-01T14:29:07.992Z,22.50
2019-06-01T14:31:37.659Z,22.40
2019-06-01T14:34:06.085Z,22.10
2019-06-01T14:36:34.583Z,22.10
2019-06-01T14:39:03.034Z,22.00
2019-06-01T14:41:31.547Z,22.30
2019-06-01T14:44:00.116Z,22.70
2019-06-01T14:46:28.570Z,23.10
2019-06-01T14:48:57.757Z,23.30
2019-06-01T14:51:26.314Z,23.20
2019-06-01T14:53:55.790Z,22.90
2019-06-01T14:56:24.369Z,22.40
2019-06-01T14:58:53.791Z,22.00
2019-06-01T15:01:31.930Z,22.30
2019-06-01T15:03:52.592Z,22.50
2019-06-01T15:06:21.559Z,22.40
2019-06-01T15:09:09.137Z,22.20
2019-06-01T15:11:20.141Z,22.50
2019-06-01T15:13:48.587Z,22.80
2019-06-01T15:16:17.082Z,23.10
2019-06-01T15:18:45.534Z,22.90
2019-06-01T15:21:14.038Z,22.80
2019-06-01T15:23:42.486Z,22.90
2019-06-01T15:26:10.946Z,22.90
2019-06-01T15:28:39.493Z,23.20
2019-06-01T15:31:08.910Z,23.00
2019-06-01T15:33:37.347Z,23.00
2019-06-01T15:36:05.798Z,23.20
2019-06-01T15:38:34.293Z,23.40
2019-06-01T15:41:02.787Z,23.50
2019-06-01T15:43:31.297Z,23.30
2019-06-01T15:45:59.902Z,23.10
2019-06-01T15:48:28.449Z,23.00
2019-06-01T15:51:01.334Z,23.00
2019-06-01T15:53:27.132Z,23.10
2019-06-01T15:55:56.576Z,23.00
2019-06-01T15:58:25.154Z,23.30
2019-06-01T16:00:54.968Z,23.20
2019-06-01T16:03:23.496Z,23.30
2019-06-01T16:05:52.941Z,23.60
2019-06-01T16:08:21.536Z,23.60
2019-06-01T16:10:50.052Z,23.60
2019-06-01T16:13:18.568Z,23.70
2019-06-01T16:15:47.134Z,23.70
2019-06-01T16:18:15.545Z,23.60
2019-06-01T16:20:44.291Z,23.60
2019-06-01T16:23:12.782Z,23.70
2019-06-01T16:25:41.226Z,23.90
2019-06-01T16:28:09.726Z,24.10
2019-06-01T16:30:38.268Z,24.00
2019-06-01T16:33:06.783Z,23.80
2019-06-01T16:35:35.261Z,23.90
2019-06-01T16:38:04.461Z,23.90
2019-06-01T16:40:33.912Z,24.10
2019-06-01T16:43:03.485Z,24.10
2019-06-01T16:45:32.045Z,23.90
2019-06-01T16:48:01.542Z,24.20
2019-06-01T16:50:30.213Z,24.50
2019-06-01T16:53:00.088Z,24.60
2019-06-01T16:55:31.455Z,24.80
2019-06-01T16:57:58.971Z,25.00
2019-06-01T17:00:27.500Z,25.00
2019-06-01T17:02:56.841Z,25.20
2019-06-01T17:05:25.486Z,25.40
2019-06-01T17:07:53.929Z,25.20
2019-06-01T17:10:26.571Z,24.90
2019-06-01T17:12:52.539Z,24.50
2019-06-01T17:15:20.980Z,24.40
2019-06-01T17:17:49.538Z,24.40
2019-06-01T17:20:38.975Z,24.30
2019-06-01T17:23:24.456Z,24.10
2019-06-01T17:25:37.642Z,23.90
2019-06-01T17:28:07.206Z,23.40
2019-06-01T17:30:35.858Z,23.10
2019-06-01T17:33:04.784Z,22.80
2019-06-01T17:35:35.980Z,22.70
2019-06-01T17:38:04.913Z,22.60
2019-06-01T17:40:37.458Z,22.50
2019-06-01T17:43:04.685Z,22.70
2019-06-01T17:45:33.356Z,22.60
2019-06-01T17:48:18.203Z,22.50
2019-06-01T17:50:32.023Z,22.50
2019-06-01T17:53:00.593Z,22.40
2019-06-01T17:55:40.029Z,22.40
2019-06-01T17:58:10.063Z,22.40
2019-06-01T18:00:38.770Z,22.50
2019-06-01T18:03:07.936Z,22.50
2019-06-01T18:05:36.845Z,22.40
2019-06-01T18:08:06.188Z,22.20
2019-06-01T18:10:35.084Z,22.10
2019-06-01T18:13:04.250Z,22.20
2019-06-01T18:15:32.866Z,22.30
2019-06-01T18:18:02.280Z,22.30
2019-06-01T18:20:30.808Z,22.30
2019-06-01T18:22:59.233Z,22.40
2019-06-01T18:25:27.699Z,22.40
2019-06-01T18:27:56.245Z,22.40
2019-06-01T18:30:24.771Z,22.30
2019-06-01T18:32:53.269Z,22.40
2019-06-01T18:35:21.753Z,22.40
2019-06-01T18:37:50.258Z,22.40
2019-06-01T18:40:20.813Z,22.30
2019-06-01T18:42:49.714Z,22.30
2019-06-01T18:45:18.289Z,22.00
2019-06-01T18:47:46.732Z,21.90
2019-06-01T18:50:17.397Z,21.80
2019-06-01T18:52:45.321Z,21.60
2019-06-01T18:55:14.635Z,21.50
2019-06-01T18:57:44.457Z,21.50
2019-06-01T19:00:15.581Z,21.40
2019-06-01T19:02:44.173Z,21.30
2019-06-01T19:05:13.199Z,21.30
2019-06-01T19:07:41.998Z,21.30
2019-06-01T19:10:12.585Z,21.30
2019-06-01T19:12:40.684Z,21.30
2019-06-01T19:15:21.933Z,21.30
2019-06-01T19:17:39.262Z,21.30
2019-06-01T19:20:08.678Z,21.10
2019-06-01T19:22:37.137Z,21.00
2019-06-01T19:25:06.623Z,21.00
2019-06-01T19:27:35.311Z,21.00
2019-06-01T19:30:06.742Z,20.90
2019-06-01T19:32:35.379Z,20.80
2019-06-01T19:35:04.299Z,20.70
2019-06-01T19:37:38.007Z,20.60
2019-06-01T19:40:09.206Z,20.60
2019-06-01T19:42:37.976Z,20.60
2019-06-01T19:45:14.052Z,20.60
2019-06-01T19:47:38.201Z,20.50
2019-06-01T19:50:08.354Z,20.40
2019-06-01T19:52:36.849Z,20.40
2019-06-01T19:55:06.660Z,20.40
2019-06-01T19:57:35.101Z,20.40
2019-06-01T20:00:06.111Z,20.40
2019-06-01T20:02:34.668Z,20.30
2019-06-01T20:05:03.145Z,20.30
2019-06-01T20:07:31.705Z,20.30
2019-06-01T20:10:00.157Z,20.30
2019-06-01T20:12:28.596Z,20.30
2019-06-01T20:14:57.089Z,20.20
2019-06-01T20:17:26.572Z,20.20
2019-06-01T20:19:55.288Z,20.20
2019-06-01T20:22:23.775Z,20.10
2019-06-01T20:24:52.239Z,20.00
2019-06-01T20:27:21.605Z,20.00
2019-06-01T20:29:50.271Z,20.00
2019-06-01T20:32:19.937Z,20.00
2019-06-01T20:34:48.500Z,20.00
2019-06-01T20:37:17.970Z,19.90
2019-06-01T20:39:48.086Z,19.90
2019-06-01T20:42:25.591Z,19.80
2019-06-01T20:44:46.819Z,19.70
2019-06-01T20:47:16.554Z,19.70
2019-06-01T20:49:45.272Z,19.70
2019-06-01T20:52:14.699Z,19.60
2019-06-01T20:54:43.316Z,19.50
2019-06-01T20:57:13.251Z,19.40
2019-06-01T20:59:41.859Z,19.40
2019-06-01T21:02:10.391Z,19.30
2019-06-01T21:04:38.841Z,19.30
2019-06-01T21:07:07.350Z,19.20
2019-06-01T21:09:35.845Z,19.20
2019-06-01T21:12:04.361Z,19.20
2019-06-01T21:14:32.841Z,19.30
2019-06-01T21:17:01.360Z,19.30
2019-06-01T21:19:29.805Z,19.30
2019-06-01T21:21:58.385Z,19.20
2019-06-01T21:24:26.837Z,19.20
2019-06-01T21:26:55.285Z,19.10
2019-06-01T21:29:25.062Z,19.10
2019-06-01T21:31:54.730Z,19.10
2019-06-01T21:34:23.924Z,19.10
2019-06-01T21:36:52.527Z,19.00
2019-06-01T21:39:21.643Z,19.00
2019-06-01T21:41:50.289Z,19.00
2019-06-01T21:44:19.491Z,19.00
2019-06-01T21:46:48.014Z,19.00
2019-06-01T21:49:17.568Z,19.00
2019-06-01T21:51:46.201Z,19.00
2019-06-01T21:54:15.912Z,18.90
2019-06-01T21:56:44.525Z,18.90
2019-06-01T21:59:12.984Z,18.90
2019-06-01T22:01:41.454Z,18.90
2019-06-01T22:04:09.993Z,18.90
2019-06-01T22:06:38.425Z,18.80
2019-06-01T22:09:07.268Z,18.70
2019-06-01T22:11:35.717Z,18.70
2019-06-01T22:14:04.501Z,18.70
2019-06-01T22:16:32.997Z,18.70
2019-06-01T22:19:01.449Z,18.70
2019-06-01T22:21:29.961Z,18.70
2019-06-01T22:23:58.399Z,18.70
2019-06-01T22:26:26.846Z,18.70
2019-06-01T22:28:55.333Z,18.70
2019-06-01T22:31:24.563Z,18.60
2019-06-01T22:33:53.137Z,18.50
2019-06-01T22:36:22.576Z,18.50
2019-06-01T22:38:51.168Z,18.50
2019-06-01T22:41:19.894Z,18.40
2019-06-01T22:43:48.577Z,18.40
2019-06-01T22:46:17.070Z,18.40
2019-06-01T22:48:45.518Z,18.40
2019-06-01T22:51:13.967Z,18.40
2019-06-01T22:53:42.495Z,18.30
2019-06-01T22:56:10.954Z,18.30
2019-06-01T22:58:39.436Z,18.30
2019-06-01T23:01:07.877Z,18.20
2019-06-01T23:03:36.413Z,18.30
2019-06-01T23:06:04.862Z,18.20
2019-06-01T23:08:33.313Z,18.20
2019-06-01T23:11:01.834Z,18.20
2019-06-01T23:13:30.383Z,18.20
2019-06-01T23:15:58.821Z,18.10
2019-06-01T23:18:27.933Z,18.10
2019-06-01T23:20:56.525Z,18.10
2019-06-01T23:23:26.019Z,18.10
2019-06-01T23:25:54.703Z,18.10
2019-06-01T23:28:24.218Z,18.10
2019-06-01T23:30:52.736Z,18.00
2019-06-01T23:33:21.224Z,18.00
2019-06-01T23:35:49.668Z,17.90
2019-06-01T23:38:18.156Z,17.90
2019-06-01T23:40:46.676Z,17.90
2019-06-01T23:43:16.226Z,17.90
2019-06-01T23:45:44.676Z,17.90
2019-06-01T23:48:13.200Z,17.90
2019-06-01T23:50:41.645Z,17.90
2019-06-01T23:53:13.614Z,17.90
2019-06-01T23:55:40.244Z,17.80
2019-06-01T23:58:08.699Z,17.80
